sensor_id;sensor_type;location;lat;lon;timestamp;temperature;humidity
16521;DHT22;8373;48.110;11.522;2022-10-13T04:03:43;11.60;92.10
16521;DHT22;8373;48.110;11.522;2022-10-13T04:06:10;11.60;91.90
16521;DHT22;8373;48.110;11.522;2022-10-13T04:08:37;11.70;91.90
16521;DHT22;8373;48.110;11.522;2022-10-13T04:11:06;11.70;91.90
16521;DHT22;8373;48.110;11.522;2022-10-13T04:13:33;11.70;91.70
16521;DHT22;8373;48.110;11.522;2022-10-13T04:16:01;11.80;91.80
16521;DHT22;8373;48.110;11.522;2022-10-13T04:18:29;11.80;91.80
16521;DHT22;8373;48.110;11.522;2022-10-13T04:20:57;11.80;91.80
16521;DHT22;8373;48.110;11.522;2022-10-13T04:23:24;11.90;91.90
16521;DHT22;8373;48.110;11.522;2022-10-13T04:25:51;11.90;92.00
16521;DHT22;8373;48.110;11.522;2022-10-13T04:28:18;11.80;92.00
16521;DHT22;8373;48.110;11.522;2022-10-13T04:30:45;11.90;92.20
16521;DHT22;8373;48.110;11.522;2022-10-13T04:33:12;11.90;92.20
16521;DHT22;8373;48.110;11.522;2022-10-13T04:35:40;11.90;92.30
16521;DHT22;8373;48.110;11.522;2022-10-13T04:38:08;12.00;92.40
16521;DHT22;8373;48.110;11.522;2022-10-13T04:40:35;11.90;92.40
16521;DHT22;8373;48.110;11.522;2022-10-13T04:43:02;11.80;92.60
16521;DHT22;8373;48.110;11.522;2022-10-13T04:45:29;11.90;92.80
16521;DHT22;8373;48.110;11.522;2022-10-13T04:47:56;12.00;92.80
16521;DHT22;8373;48.110;11.522;2022-10-13T04:50:23;12.00;92.60
16521;DHT22;8373;48.110;11.522;2022-10-13T04:52:50;12.10;92.70
16521;DHT22;8373;48.110;11.522;2022-10-13T04:55:19;12.10;92.60
16521;DHT22;8373;48.110;11.522;2022-10-13T04:57:46;12.20;92.50
16521;DHT22;8373;48.110;11.522;2022-10-13T05:00:13;12.20;92.40
16521;DHT22;8373;48.110;11.522;2022-10-13T05:02:40;12.30;92.40
16521;DHT22;8373;48.110;11.522;2022-10-13T05:05:08;12.30;92.30
16521;DHT22;8373;48.110;11.522;2022-10-13T05:07:35;12.30;92.10
16521;DHT22;8373;48.110;11.522;2022-10-13T05:10:02;12.40;92.20
16521;DHT22;8373;48.110;11.522;2022-10-13T05:12:31;12.40;92.20
16521;DHT22;8373;48.110;11.522;2022-10-13T05:14:58;12.40;92.30
16521;DHT22;8373;48.110;11.522;2022-10-13T05:17:24;12.30;92.30
16521;DHT22;8373;48.110;11.522;2022-10-13T05:19:51;12.40;92.40
16521;DHT22;8373;48.110;11.522;2022-10-13T05:22:18;12.40;92.40
16521;DHT22;8373;48.110;11.522;2022-10-13T05:24:45;12.40;92.40
16521;DHT22;8373;48.110;11.522;2022-10-13T05:27:12;12.40;92.40
16521;DHT22;8373;48.110;11.522;2022-10-13T05:29:41;12.40;92.60
16521;DHT22;8373;48.110;11.522;2022-10-13T05:32:08;12.40;92.70
16521;DHT22;8373;48.110;11.522;2022-10-13T05:34:35;12.40;92.80
16521;DHT22;8373;48.110;11.522;2022-10-13T05:37:02;12.50;92.90
16521;DHT22;8373;48.110;11.522;2022-10-13T05:39:29;12.50;92.80
16521;DHT22;8373;48.110;11.522;2022-10-13T05:41:56;12.60;92.90
16521;DHT22;8373;48.110;11.522;2022-10-13T05:44:23;12.60;92.90
16521;DHT22;8373;48.110;11.522;2022-10-13T05:46:52;12.70;92.90
16521;DHT22;8373;48.110;11.522;2022-10-13T05:49:19;12.60;92.80
16521;DHT22;8373;48.110;11.522;2022-10-13T05:51:47;12.60;93.00
16521;DHT22;8373;48.110;11.522;2022-10-13T05:54:19;12.70;93.30
16521;DHT22;8373;48.110;11.522;2022-10-13T05:56:51;12.70;93.40
16521;DHT22;8373;48.110;11.522;2022-10-13T05:59:19;12.60;93.50
16521;DHT22;8373;48.110;11.522;2022-10-13T06:01:47;12.50;93.70
16521;DHT22;8373;48.110;11.522;2022-10-13T06:04:19;12.50;94.00
16521;DHT22;8373;48.110;11.522;2022-10-13T06:06:48;12.60;94.20
16521;DHT22;8373;48.110;11.522;2022-10-13T06:09:15;12.60;94.20
16521;DHT22;8373;48.110;11.522;2022-10-13T06:11:42;12.60;94.10
16521;DHT22;8373;48.110;11.522;2022-10-13T06:14:09;12.70;94.20
16521;DHT22;8373;48.110;11.522;2022-10-13T06:16:36;12.70;94.20
16521;DHT22;8373;48.110;11.522;2022-10-13T06:19:04;12.60;94.30
16521;DHT22;8373;48.110;11.522;2022-10-13T06:21:33;12.60;94.40
16521;DHT22;8373;48.110;11.522;2022-10-13T06:24:00;12.60;94.50
16521;DHT22;8373;48.110;11.522;2022-10-13T06:26:27;12.70;94.70
16521;DHT22;8373;48.110;11.522;2022-10-13T06:28:55;12.70;94.70
16521;DHT22;8373;48.110;11.522;2022-10-13T06:31:22;12.70;94.60
16521;DHT22;8373;48.110;11.522;2022-10-13T06:33:49;12.70;94.70
16521;DHT22;8373;48.110;11.522;2022-10-13T06:36:16;12.90;94.90
16521;DHT22;8373;48.110;11.522;2022-10-13T06:38:44;13.00;94.80
16521;DHT22;8373;48.110;11.522;2022-10-13T06:41:11;13.10;94.70
16521;DHT22;8373;48.110;11.522;2022-10-13T06:43:38;13.20;94.60
16521;DHT22;8373;48.110;11.522;2022-10-13T06:46:06;13.20;94.40
16521;DHT22;8373;48.110;11.522;2022-10-13T06:48:33;13.10;94.40
16521;DHT22;8373;48.110;11.522;2022-10-13T06:51:00;13.00;94.70
16521;DHT22;8373;48.110;11.522;2022-10-13T06:53:28;13.10;94.80
16521;DHT22;8373;48.110;11.522;2022-10-13T06:55:57;13.20;94.80
16521;DHT22;8373;48.110;11.522;2022-10-13T06:58:24;13.30;94.90
16521;DHT22;8373;48.110;11.522;2022-10-13T07:00:52;13.30;94.80
16521;DHT22;8373;48.110;11.522;2022-10-13T07:03:20;13.40;94.80
16521;DHT22;8373;48.110;11.522;2022-10-13T07:05:48;13.50;94.70
16521;DHT22;8373;48.110;11.522;2022-10-13T07:08:15;13.40;94.60
16521;DHT22;8373;48.110;11.522;2022-10-13T07:10:42;13.50;94.70
16521;DHT22;8373;48.110;11.522;2022-10-13T07:13:10;13.50;94.70
16521;DHT22;8373;48.110;11.522;2022-10-13T07:15:37;13.60;94.80
16521;DHT22;8373;48.110;11.522;2022-10-13T07:18:05;13.50;94.70
16521;DHT22;8373;48.110;11.522;2022-10-13T07:20:32;13.50;94.90
16521;DHT22;8373;48.110;11.522;2022-10-13T07:22:59;13.50;94.90
16521;DHT22;8373;48.110;11.522;2022-10-13T07:25:26;13.60;95.00
16521;DHT22;8373;48.110;11.522;2022-10-13T07:27:53;13.60;94.90
16521;DHT22;8373;48.110;11.522;2022-10-13T07:30:22;13.60;94.90
16521;DHT22;8373;48.110;11.522;2022-10-13T07:32:49;13.60;95.00
16521;DHT22;8373;48.110;11.522;2022-10-13T07:35:16;13.60;94.90
16521;DHT22;8373;48.110;11.522;2022-10-13T07:37:43;13.70;95.00
16521;DHT22;8373;48.110;11.522;2022-10-13T07:40:10;13.70;95.00
16521;DHT22;8373;48.110;11.522;2022-10-13T07:42:37;13.60;94.90
16521;DHT22;8373;48.110;11.522;2022-10-13T07:45:06;13.60;95.10
16521;DHT22;8373;48.110;11.522;2022-10-13T07:47:34;13.70;95.10
16521;DHT22;8373;48.110;11.522;2022-10-13T07:50:01;13.70;95.00
16521;DHT22;8373;48.110;11.522;2022-10-13T07:52:28;13.60;94.80
16521;DHT22;8373;48.110;11.522;2022-10-13T07:54:55;13.60;94.80
16521;DHT22;8373;48.110;11.522;2022-10-13T07:57:25;13.70;94.90
16521;DHT22;8373;48.110;11.522;2022-10-13T07:59:52;13.70;94.90
16521;DHT22;8373;48.110;11.522;2022-10-13T08:02:19;13.80;94.80
16521;DHT22;8373;48.110;11.522;2022-10-13T08:04:48;13.70;94.60
16521;DHT22;8373;48.110;11.522;2022-10-13T08:07:15;13.80;94.80
16521;DHT22;8373;48.110;11.522;2022-10-13T08:09:43;13.80;94.50
16521;DHT22;8373;48.110;11.522;2022-10-13T08:12:10;13.70;94.30
16521;DHT22;8373;48.110;11.522;2022-10-13T08:14:37;13.70;94.40
16521;DHT22;8373;48.110;11.522;2022-10-13T08:17:04;13.90;94.50
16521;DHT22;8373;48.110;11.522;2022-10-13T08:19:31;13.80;94.30
16521;DHT22;8373;48.110;11.522;2022-10-13T08:22:00;13.80;94.30
16521;DHT22;8373;48.110;11.522;2022-10-13T08:24:27;13.90;94.30
16521;DHT22;8373;48.110;11.522;2022-10-13T08:26:55;14.00;94.20
16521;DHT22;8373;48.110;11.522;2022-10-13T08:29:23;13.90;94.10
16521;DHT22;8373;48.110;11.522;2022-10-13T08:31:50;14.00;94.20
16521;DHT22;8373;48.110;11.522;2022-10-13T08:34:17;13.90;94.20
16521;DHT22;8373;48.110;11.522;2022-10-13T08:36:44;13.90;94.30
16521;DHT22;8373;48.110;11.522;2022-10-13T08:39:13;13.90;94.50
16521;DHT22;8373;48.110;11.522;2022-10-13T08:41:41;13.90;94.40
16521;DHT22;8373;48.110;11.522;2022-10-13T08:44:15;14.10;94.50
16521;DHT22;8373;48.110;11.522;2022-10-13T08:46:48;14.20;94.60
16521;DHT22;8373;48.110;11.522;2022-10-13T08:49:18;14.20;94.50
16521;DHT22;8373;48.110;11.522;2022-10-13T08:51:45;14.30;94.50
16521;DHT22;8373;48.110;11.522;2022-10-13T08:54:15;14.30;94.40
16521;DHT22;8373;48.110;11.522;2022-10-13T08:56:45;14.20;94.40
16521;DHT22;8373;48.110;11.522;2022-10-13T08:59:15;14.40;94.70
16521;DHT22;8373;48.110;11.522;2022-10-13T09:01:44;14.40;94.30
16521;DHT22;8373;48.110;11.522;2022-10-13T09:04:25;14.60;94.30
16521;DHT22;8373;48.110;11.522;2022-10-13T09:06:56;14.60;93.90
16521;DHT22;8373;48.110;11.522;2022-10-13T09:09:26;14.70;93.90
16521;DHT22;8373;48.110;11.522;2022-10-13T09:11:53;14.70;93.80
16521;DHT22;8373;48.110;11.522;2022-10-13T09:14:22;14.80;93.70
16521;DHT22;8373;48.110;11.522;2022-10-13T09:16:50;14.80;93.50
16521;DHT22;8373;48.110;11.522;2022-10-13T09:19:24;14.70;93.40
16521;DHT22;8373;48.110;11.522;2022-10-13T09:21:54;14.90;93.60
16521;DHT22;8373;48.110;11.522;2022-10-13T09:24:23;15.00;93.40
16521;DHT22;8373;48.110;11.522;2022-10-13T09:27:04;14.90;93.00
16521;DHT22;8373;48.110;11.522;2022-10-13T09:29:32;14.80;93.00
16521;DHT22;8373;48.110;11.522;2022-10-13T09:32:16;14.90;93.30
16521;DHT22;8373;48.110;11.522;2022-10-13T09:34:44;14.90;93.10
16521;DHT22;8373;48.110;11.522;2022-10-13T09:37:18;15.00;93.10
16521;DHT22;8373;48.110;11.522;2022-10-13T09:39:45;14.90;93.00
16521;DHT22;8373;48.110;11.522;2022-10-13T09:42:24;15.00;93.10
16521;DHT22;8373;48.110;11.522;2022-10-13T09:44:56;15.10;93.10
16521;DHT22;8373;48.110;11.522;2022-10-13T09:47:26;15.20;93.10
16521;DHT22;8373;48.110;11.522;2022-10-13T09:50:03;15.40;92.90
16521;DHT22;8373;48.110;11.522;2022-10-13T09:52:31;15.40;92.20
16521;DHT22;8373;48.110;11.522;2022-10-13T09:54:59;15.50;91.90
16521;DHT22;8373;48.110;11.522;2022-10-13T09:57:40;15.60;91.30
16521;DHT22;8373;48.110;11.522;2022-10-13T10:00:16;15.60;90.60
16521;DHT22;8373;48.110;11.522;2022-10-13T10:02:48;15.70;90.10
16521;DHT22;8373;48.110;11.522;2022-10-13T10:05:24;15.80;89.20
16521;DHT22;8373;48.110;11.522;2022-10-13T10:07:52;16.00;88.50
16521;DHT22;8373;48.110;11.522;2022-10-13T10:10:30;16.10;87.20
16521;DHT22;8373;48.110;11.522;2022-10-13T10:12:59;16.10;86.10
16521;DHT22;8373;48.110;11.522;2022-10-13T10:15:35;16.10;86.30
16521;DHT22;8373;48.110;11.522;2022-10-13T10:18:07;16.10;86.60
16521;DHT22;8373;48.110;11.522;2022-10-13T10:20:55;16.20;86.60
16521;DHT22;8373;48.110;11.522;2022-10-13T10:23:32;16.20;86.90
16521;DHT22;8373;48.110;11.522;2022-10-13T10:26:05;16.20;87.40
16521;DHT22;8373;48.110;11.522;2022-10-13T10:28:42;16.20;87.30
16521;DHT22;8373;48.110;11.522;2022-10-13T10:31:22;16.20;86.60
16521;DHT22;8373;48.110;11.522;2022-10-13T10:34:04;16.30;86.40
16521;DHT22;8373;48.110;11.522;2022-10-13T10:36:38;16.30;86.00
16521;DHT22;8373;48.110;11.522;2022-10-13T10:39:15;16.20;85.60
16521;DHT22;8373;48.110;11.522;2022-10-13T10:41:49;16.00;86.00
16521;DHT22;8373;48.110;11.522;2022-10-13T10:44:23;15.80;87.10
16521;DHT22;8373;48.110;11.522;2022-10-13T10:46:54;15.70;87.50
16521;DHT22;8373;48.110;11.522;2022-10-13T10:49:26;15.60;88.00
16521;DHT22;8373;48.110;11.522;2022-10-13T10:51:55;15.70;88.00
16521;DHT22;8373;48.110;11.522;2022-10-13T10:54:29;15.90;88.40
16521;DHT22;8373;48.110;11.522;2022-10-13T10:57:06;16.30;88.50
16521;DHT22;8373;48.110;11.522;2022-10-13T10:59:46;16.70;87.30
16521;DHT22;8373;48.110;11.522;2022-10-13T11:02:34;17.20;84.90
16521;DHT22;8373;48.110;11.522;2022-10-13T11:05:03;18.20;81.50
16521;DHT22;8373;48.110;11.522;2022-10-13T11:07:53;18.80;78.30
16521;DHT22;8373;48.110;11.522;2022-10-13T11:10:21;19.00;76.00
16521;DHT22;8373;48.110;11.522;2022-10-13T11:15:52;18.90;74.30
16521;DHT22;8373;48.110;11.522;2022-10-13T11:24:56;20.30;71.80
16521;DHT22;8373;48.110;11.522;2022-10-13T11:27:40;21.30;68.90
16521;DHT22;8373;48.110;11.522;2022-10-13T11:30:45;21.60;64.60
16521;DHT22;8373;48.110;11.522;2022-10-13T11:33:54;22.10;63.00
16521;DHT22;8373;48.110;11.522;2022-10-13T11:36:52;22.30;61.90
16521;DHT22;8373;48.110;11.522;2022-10-13T11:49:01;23.60;57.40
16521;DHT22;8373;48.110;11.522;2022-10-13T11:51:45;23.70;56.40
16521;DHT22;8373;48.110;11.522;2022-10-13T11:54:22;23.40;56.20
16521;DHT22;8373;48.110;11.522;2022-10-13T11:56:54;23.50;56.00
16521;DHT22;8373;48.110;11.522;2022-10-13T11:59:24;23.30;56.10
16521;DHT22;8373;48.110;11.522;2022-10-13T12:01:56;22.80;57.10
16521;DHT22;8373;48.110;11.522;2022-10-13T12:04:26;22.60;57.90
16521;DHT22;8373;48.110;11.522;2022-10-13T12:06:59;22.30;58.70
16521;DHT22;8373;48.110;11.522;2022-10-13T12:09:28;21.90;58.80
16521;DHT22;8373;48.110;11.522;2022-10-13T12:12:00;21.60;59.70
16521;DHT22;8373;48.110;11.522;2022-10-13T12:14:31;21.30;60.10
16521;DHT22;8373;48.110;11.522;2022-10-13T12:17:01;21.00;61.40
16521;DHT22;8373;48.110;11.522;2022-10-13T12:19:30;20.60;62.40
16521;DHT22;8373;48.110;11.522;2022-10-13T12:21:59;20.40;62.70
16521;DHT22;8373;48.110;11.522;2022-10-13T12:24:28;20.20;63.60
16521;DHT22;8373;48.110;11.522;2022-10-13T12:26:56;20.00;64.20
16521;DHT22;8373;48.110;11.522;2022-10-13T12:29:25;19.60;65.00
16521;DHT22;8373;48.110;11.522;2022-10-13T12:31:53;19.50;66.20
16521;DHT22;8373;48.110;11.522;2022-10-13T12:34:24;19.30;66.40
16521;DHT22;8373;48.110;11.522;2022-10-13T12:36:56;19.20;67.40
16521;DHT22;8373;48.110;11.522;2022-10-13T12:39:24;19.20;68.00
16521;DHT22;8373;48.110;11.522;2022-10-13T12:41:52;19.10;68.10
16521;DHT22;8373;48.110;11.522;2022-10-13T12:44:23;19.00;68.80
16521;DHT22;8373;48.110;11.522;2022-10-13T12:46:53;18.60;69.50
16521;DHT22;8373;48.110;11.522;2022-10-13T12:49:25;18.50;70.90
16521;DHT22;8373;48.110;11.522;2022-10-13T12:51:57;18.50;71.10
16521;DHT22;8373;48.110;11.522;2022-10-13T12:54:30;18.40;71.10
16521;DHT22;8373;48.110;11.522;2022-10-13T12:57:00;18.30;71.60
16521;DHT22;8373;48.110;11.522;2022-10-13T12:59:29;18.40;72.10
16521;DHT22;8373;48.110;11.522;2022-10-13T13:01:58;18.40;72.50
16521;DHT22;8373;48.110;11.522;2022-10-13T13:04:38;18.50;72.50
16521;DHT22;8373;48.110;11.522;2022-10-13T13:07:25;18.50;72.40
16521;DHT22;8373;48.110;11.522;2022-10-13T13:10:02;18.50;72.70
16521;DHT22;8373;48.110;11.522;2022-10-13T13:12:35;18.50;72.90
16521;DHT22;8373;48.110;11.522;2022-10-13T13:18:22;18.60;73.70
16521;DHT22;8373;48.110;11.522;2022-10-13T13:20:49;18.70;74.00
16521;DHT22;8373;48.110;11.522;2022-10-13T13:23:18;18.70;73.50
16521;DHT22;8373;48.110;11.522;2022-10-13T13:25:46;18.80;73.20
16521;DHT22;8373;48.110;11.522;2022-10-13T13:28:14;18.80;73.10
16521;DHT22;8373;48.110;11.522;2022-10-13T13:30:41;18.80;73.00
16521;DHT22;8373;48.110;11.522;2022-10-13T13:33:09;18.80;73.10
16521;DHT22;8373;48.110;11.522;2022-10-13T13:35:36;18.80;73.40
16521;DHT22;8373;48.110;11.522;2022-10-13T13:38:03;18.80;74.50
16521;DHT22;8373;48.110;11.522;2022-10-13T13:40:32;18.80;74.50
16521;DHT22;8373;48.110;11.522;2022-10-13T13:42:59;18.80;74.20
16521;DHT22;8373;48.110;11.522;2022-10-13T13:45:26;18.70;73.50
16521;DHT22;8373;48.110;11.522;2022-10-13T13:47:53;18.70;73.80
16521;DHT22;8373;48.110;11.522;2022-10-13T13:50:22;18.80;73.80
16521;DHT22;8373;48.110;11.522;2022-10-13T13:52:50;18.70;73.70
16521;DHT22;8373;48.110;11.522;2022-10-13T13:55:17;18.70;74.20
16521;DHT22;8373;48.110;11.522;2022-10-13T13:57:45;18.80;74.50
16521;DHT22;8373;48.110;11.522;2022-10-13T14:00:14;18.80;74.70
16521;DHT22;8373;48.110;11.522;2022-10-13T14:02:42;18.70;74.50
16521;DHT22;8373;48.110;11.522;2022-10-13T14:05:10;18.70;74.30
16521;DHT22;8373;48.110;11.522;2022-10-13T14:07:37;18.70;74.30
16521;DHT22;8373;48.110;11.522;2022-10-13T14:10:05;18.60;74.30
16521;DHT22;8373;48.110;11.522;2022-10-13T14:12:32;18.40;74.40
16521;DHT22;8373;48.110;11.522;2022-10-13T14:15:01;18.10;75.30
16521;DHT22;8373;48.110;11.522;2022-10-13T14:17:28;18.20;75.90
16521;DHT22;8373;48.110;11.522;2022-10-13T14:19:55;18.20;76.20
16521;DHT22;8373;48.110;11.522;2022-10-13T14:22:22;18.30;76.40
16521;DHT22;8373;48.110;11.522;2022-10-13T14:24:49;18.30;76.80
16521;DHT22;8373;48.110;11.522;2022-10-13T14:27:16;18.20;77.50
16521;DHT22;8373;48.110;11.522;2022-10-13T14:29:43;18.20;77.90
16521;DHT22;8373;48.110;11.522;2022-10-13T14:32:11;18.10;77.60
16521;DHT22;8373;48.110;11.522;2022-10-13T14:34:38;18.00;78.30
16521;DHT22;8373;48.110;11.522;2022-10-13T14:37:05;18.00;78.30
16521;DHT22;8373;48.110;11.522;2022-10-13T14:39:32;18.00;79.10
16521;DHT22;8373;48.110;11.522;2022-10-13T14:41:59;18.00;78.30
16521;DHT22;8373;48.110;11.522;2022-10-13T14:44:26;18.00;78.20
16521;DHT22;8373;48.110;11.522;2022-10-13T14:46:53;18.00;78.10
16521;DHT22;8373;48.110;11.522;2022-10-13T14:49:21;17.90;78.10
16521;DHT22;8373;48.110;11.522;2022-10-13T14:51:48;18.00;78.60
16521;DHT22;8373;48.110;11.522;2022-10-13T14:54:15;18.10;78.80
16521;DHT22;8373;48.110;11.522;2022-10-13T14:56:42;18.10;78.70
16521;DHT22;8373;48.110;11.522;2022-10-13T14:59:11;18.20;78.30
16521;DHT22;8373;48.110;11.522;2022-10-13T15:01:38;18.20;78.00
16521;DHT22;8373;48.110;11.522;2022-10-13T15:04:06;18.20;78.30
16521;DHT22;8373;48.110;11.522;2022-10-13T15:06:35;18.20;78.20
16521;DHT22;8373;48.110;11.522;2022-10-13T15:09:03;18.10;78.00
16521;DHT22;8373;48.110;11.522;2022-10-13T15:11:31;18.10;78.50
16521;DHT22;8373;48.110;11.522;2022-10-13T15:13:58;18.20;78.60
16521;DHT22;8373;48.110;11.522;2022-10-13T15:16:27;18.10;78.20
16521;DHT22;8373;48.110;11.522;2022-10-13T15:18:55;18.00;78.30
16521;DHT22;8373;48.110;11.522;2022-10-13T15:21:23;18.10;78.50
16521;DHT22;8373;48.110;11.522;2022-10-13T15:23:52;18.10;78.70
16521;DHT22;8373;48.110;11.522;2022-10-13T15:26:19;18.10;79.00
16521;DHT22;8373;48.110;11.522;2022-10-13T15:28:48;18.10;79.50
16521;DHT22;8373;48.110;11.522;2022-10-13T15:31:17;17.90;79.70
16521;DHT22;8373;48.110;11.522;2022-10-13T15:33:45;17.90;80.20
16521;DHT22;8373;48.110;11.522;2022-10-13T15:36:13;17.70;80.40
16521;DHT22;8373;48.110;11.522;2022-10-13T15:38:40;17.70;80.80
16521;DHT22;8373;48.110;11.522;2022-10-13T15:41:09;17.70;81.30
16521;DHT22;8373;48.110;11.522;2022-10-13T15:43:36;17.60;81.60
16521;DHT22;8373;48.110;11.522;2022-10-13T15:46:05;17.60;82.00
16521;DHT22;8373;48.110;11.522;2022-10-13T15:48:32;17.50;82.10
16521;DHT22;8373;48.110;11.522;2022-10-13T15:50:59;17.50;82.60
16521;DHT22;8373;48.110;11.522;2022-10-13T15:53:28;17.50;82.70
16521;DHT22;8373;48.110;11.522;2022-10-13T15:55:55;17.50;82.70
16521;DHT22;8373;48.110;11.522;2022-10-13T15:58:23;17.50;82.80
16521;DHT22;8373;48.110;11.522;2022-10-13T16:00:50;17.40;82.70
16521;DHT22;8373;48.110;11.522;2022-10-13T16:03:17;17.40;83.10
16521;DHT22;8373;48.110;11.522;2022-10-13T16:05:45;17.30;83.40
16521;DHT22;8373;48.110;11.522;2022-10-13T16:08:13;17.30;83.80
16521;DHT22;8373;48.110;11.522;2022-10-13T16:10:40;17.30;83.90
16521;DHT22;8373;48.110;11.522;2022-10-13T16:13:08;17.40;84.10
16521;DHT22;8373;48.110;11.522;2022-10-13T16:15:36;17.40;84.20
16521;DHT22;8373;48.110;11.522;2022-10-13T16:18:03;17.40;84.40
16521;DHT22;8373;48.110;11.522;2022-10-13T16:20:31;17.40;84.50
16521;DHT22;8373;48.110;11.522;2022-10-13T16:23:00;17.30;84.70
16521;DHT22;8373;48.110;11.522;2022-10-13T16:25:27;17.30;85.00
16521;DHT22;8373;48.110;11.522;2022-10-13T16:27:54;17.30;85.30
16521;DHT22;8373;48.110;11.522;2022-10-13T16:30:21;17.10;85.60
16521;DHT22;8373;48.110;11.522;2022-10-13T16:32:50;17.10;86.20
16521;DHT22;8373;48.110;11.522;2022-10-13T16:35:17;16.90;86.60
16521;DHT22;8373;48.110;11.522;2022-10-13T16:37:44;16.90;87.10
16521;DHT22;8373;48.110;11.522;2022-10-13T16:40:11;16.70;87.40
16521;DHT22;8373;48.110;11.522;2022-10-13T16:42:38;16.60;88.20
16521;DHT22;8373;48.110;11.522;2022-10-13T16:45:06;16.70;88.60
16521;DHT22;8373;48.110;11.522;2022-10-13T16:47:33;16.70;88.70
16521;DHT22;8373;48.110;11.522;2022-10-13T16:50:02;16.70;88.70
16521;DHT22;8373;48.110;11.522;2022-10-13T16:52:31;16.60;89.00
16521;DHT22;8373;48.110;11.522;2022-10-13T16:54:57;16.60;89.30
16521;DHT22;8373;48.110;11.522;2022-10-13T16:57:24;16.70;89.60
16521;DHT22;8373;48.110;11.522;2022-10-13T16:59:51;16.50;89.30
16521;DHT22;8373;48.110;11.522;2022-10-13T17:02:18;16.50;89.60
16521;DHT22;8373;48.110;11.522;2022-10-13T17:04:45;16.60;90.00
16521;DHT22;8373;48.110;11.522;2022-10-13T17:07:13;16.60;90.00
16521;DHT22;8373;48.110;11.522;2022-10-13T17:09:41;16.70;89.90
16521;DHT22;8373;48.110;11.522;2022-10-13T17:12:08;16.60;89.40
16521;DHT22;8373;48.110;11.522;2022-10-13T17:14:35;16.50;89.50
16521;DHT22;8373;48.110;11.522;2022-10-13T17:17:02;16.50;90.00
16521;DHT22;8373;48.110;11.522;2022-10-13T17:19:29;16.50;90.10
16521;DHT22;8373;48.110;11.522;2022-10-13T17:21:56;16.50;90.10
16521;DHT22;8373;48.110;11.522;2022-10-13T17:24:24;16.50;90.10
16521;DHT22;8373;48.110;11.522;2022-10-13T17:26:54;16.50;90.10
16521;DHT22;8373;48.110;11.522;2022-10-13T17:29:21;16.50;90.10
16521;DHT22;8373;48.110;11.522;2022-10-13T17:31:48;16.40;90.10
16521;DHT22;8373;48.110;11.522;2022-10-13T17:34:15;16.40;90.20
16521;DHT22;8373;48.110;11.522;2022-10-13T17:36:42;16.30;90.30
16521;DHT22;8373;48.110;11.522;2022-10-13T17:39:10;16.30;90.50
16521;DHT22;8373;48.110;11.522;2022-10-13T17:41:39;16.30;90.90
16521;DHT22;8373;48.110;11.522;2022-10-13T17:44:06;16.30;90.60
16521;DHT22;8373;48.110;11.522;2022-10-13T17:46:33;16.20;90.80
16521;DHT22;8373;48.110;11.522;2022-10-13T17:49:01;16.20;90.80
16521;DHT22;8373;48.110;11.522;2022-10-13T17:51:28;16.20;90.90
16521;DHT22;8373;48.110;11.522;2022-10-13T17:53:57;16.30;90.90
16521;DHT22;8373;48.110;11.522;2022-10-13T17:56:25;16.30;90.80
16521;DHT22;8373;48.110;11.522;2022-10-13T17:58:54;16.30;90.80
16521;DHT22;8373;48.110;11.522;2022-10-13T18:01:22;16.30;90.80
16521;DHT22;8373;48.110;11.522;2022-10-13T18:03:51;16.30;90.80
16521;DHT22;8373;48.110;11.522;2022-10-13T18:06:18;16.30;90.80
16521;DHT22;8373;48.110;11.522;2022-10-13T18:08:47;16.30;90.80
16521;DHT22;8373;48.110;11.522;2022-10-13T18:11:17;16.30;90.70
16521;DHT22;8373;48.110;11.522;2022-10-13T18:13:44;16.30;90.70
16521;DHT22;8373;48.110;11.522;2022-10-13T18:16:15;16.30;90.70
16521;DHT22;8373;48.110;11.522;2022-10-13T18:18:43;16.30;90.70
16521;DHT22;8373;48.110;11.522;2022-10-13T18:21:13;16.10;90.60
16521;DHT22;8373;48.110;11.522;2022-10-13T18:23:40;16.00;90.90
16521;DHT22;8373;48.110;11.522;2022-10-13T18:26:09;16.00;91.00
16521;DHT22;8373;48.110;11.522;2022-10-13T18:28:38;16.00;91.00
16521;DHT22;8373;48.110;11.522;2022-10-13T18:31:09;16.00;91.20
16521;DHT22;8373;48.110;11.522;2022-10-13T18:33:38;16.00;91.20
16521;DHT22;8373;48.110;11.522;2022-10-13T18:36:14;16.00;91.10
16521;DHT22;8373;48.110;11.522;2022-10-13T18:38:41;16.00;91.10
16521;DHT22;8373;48.110;11.522;2022-10-13T18:41:08;16.00;91.20
16521;DHT22;8373;48.110;11.522;2022-10-13T18:43:35;16.00;91.10
16521;DHT22;8373;48.110;11.522;2022-10-13T18:46:03;16.00;91.20
16521;DHT22;8373;48.110;11.522;2022-10-13T18:48:30;16.00;91.10
16521;DHT22;8373;48.110;11.522;2022-10-13T18:51:03;16.00;91.20
16521;DHT22;8373;48.110;11.522;2022-10-13T18:53:30;16.00;91.20
16521;DHT22;8373;48.110;11.522;2022-10-13T18:56:01;16.00;91.20
16521;DHT22;8373;48.110;11.522;2022-10-13T18:58:29;16.00;91.20
16521;DHT22;8373;48.110;11.522;2022-10-13T19:01:00;15.90;91.20
16521;DHT22;8373;48.110;11.522;2022-10-13T19:03:27;15.90;91.20
16521;DHT22;8373;48.110;11.522;2022-10-13T19:05:54;15.90;91.20
16521;DHT22;8373;48.110;11.522;2022-10-13T19:08:23;15.90;91.30
16521;DHT22;8373;48.110;11.522;2022-10-13T19:10:50;15.90;91.30
16521;DHT22;8373;48.110;11.522;2022-10-13T19:13:17;15.80;91.20
16521;DHT22;8373;48.110;11.522;2022-10-13T19:15:45;15.80;91.30
16521;DHT22;8373;48.110;11.522;2022-10-13T19:18:13;15.80;91.40
16521;DHT22;8373;48.110;11.522;2022-10-13T19:20:40;15.80;91.40
16521;DHT22;8373;48.110;11.522;2022-10-13T19:23:13;15.70;91.10
16521;DHT22;8373;48.110;11.522;2022-10-13T19:25:43;15.70;91.20
16521;DHT22;8373;48.110;11.522;2022-10-13T19:28:11;15.60;91.40
16521;DHT22;8373;48.110;11.522;2022-10-13T19:30:39;15.40;91.40
16521;DHT22;8373;48.110;11.522;2022-10-13T19:33:06;15.30;91.60
16521;DHT22;8373;48.110;11.522;2022-10-13T19:35:38;15.30;91.80
16521;DHT22;8373;48.110;11.522;2022-10-13T19:38:05;15.30;91.80
16521;DHT22;8373;48.110;11.522;2022-10-13T19:40:32;15.30;91.80
16521;DHT22;8373;48.110;11.522;2022-10-13T19:43:01;15.30;91.90
16521;DHT22;8373;48.110;11.522;2022-10-13T19:45:28;15.30;92.10
16521;DHT22;8373;48.110;11.522;2022-10-13T19:47:56;15.40;92.10
16521;DHT22;8373;48.110;11.522;2022-10-13T19:50:23;15.50;92.00
16521;DHT22;8373;48.110;11.522;2022-10-13T19:52:50;15.50;91.90
16521;DHT22;8373;48.110;11.522;2022-10-13T19:55:17;15.40;91.60
16521;DHT22;8373;48.110;11.522;2022-10-13T19:57:44;15.40;91.60
16521;DHT22;8373;48.110;11.522;2022-10-13T20:00:14;15.30;91.70
16521;DHT22;8373;48.110;11.522;2022-10-13T20:02:41;15.30;91.80
16521;DHT22;8373;48.110;11.522;2022-10-13T20:05:08;15.30;91.90
16521;DHT22;8373;48.110;11.522;2022-10-13T20:07:35;15.30;91.80